createdAt,value
2022-12-28T00:02:19.939Z,10.15
2022-12-28T00:04:49.368Z,10.05
2022-12-28T00:07:18.150Z,9.84
2022-12-28T00:09:46.270Z,9.95
2022-12-28T00:12:14.441Z,9.97
2022-12-28T00:14:42.414Z,9.69
2022-12-28T00:17:14.290Z,9.74
2022-12-28T00:19:42.454Z,9.84
2022-12-28T00:22:11.820Z,9.83
2022-12-28T00:24:39.855Z,9.82
2022-12-28T00:27:07.995Z,9.69
2022-12-28T00:29:36.152Z,9.56
2022-12-28T00:32:04.152Z,9.53
2022-12-28T00:34:32.300Z,9.42
2022-12-28T00:37:10.050Z,8.93
2022-12-28T00:39:43.196Z,8.59
2022-12-28T00:42:11.711Z,8.44
2022-12-28T00:44:39.750Z,8.48
2022-12-28T00:47:07.927Z,8.88
2022-12-28T00:49:36.275Z,8.96
2022-12-28T00:52:04.563Z,9.18
2022-12-28T00:54:32.651Z,9.14
2022-12-28T00:57:02.112Z,9.25
2022-12-28T00:59:30.242Z,9.44
2022-12-28T01:01:58.432Z,9.46
2022-12-28T01:04:26.441Z,9.42
2022-12-28T01:06:54.450Z,9.34
2022-12-28T01:09:22.543Z,9.08
2022-12-28T01:11:50.666Z,9.22
2022-12-28T01:14:20.035Z,8.97
2022-12-28T01:16:48.167Z,9.13
2022-12-28T01:19:21.271Z,9.06
2022-12-28T01:21:50.275Z,9.05
2022-12-28T01:24:19.075Z,9.19
2022-12-28T01:26:47.137Z,8.60
2022-12-28T01:29:15.129Z,8.38
2022-12-28T01:31:44.564Z,8.39
2022-12-28T01:34:12.615Z,8.38
2022-12-28T01:36:40.659Z,8.12
2022-12-28T01:39:08.702Z,5.85
2022-12-28T01:41:39.536Z,7.74
2022-12-28T01:44:40.820Z,7.97
2022-12-28T01:47:14.035Z,8.25
2022-12-28T01:49:46.323Z,7.94
2022-12-28T01:52:18.117Z,7.85
2022-12-28T01:54:49.387Z,7.97
2022-12-28T01:57:18.357Z,8.03
2022-12-28T01:59:53.646Z,8.05
2022-12-28T02:02:23.695Z,8.00
2022-12-28T02:04:52.034Z,8.02
2022-12-28T02:07:28.282Z,8.22
2022-12-28T02:10:42.507Z,7.82
2022-12-28T02:12:46.458Z,7.90
2022-12-28T02:15:19.708Z,7.98
2022-12-28T02:17:52.436Z,8.14
2022-12-28T02:20:20.848Z,8.02
2022-12-28T02:23:21.826Z,8.09
2022-12-28T02:26:18.576Z,8.04
2022-12-28T02:29:10.256Z,7.83
2022-12-28T02:31:44.538Z,8.03
2022-12-28T02:34:23.267Z,8.01
2022-12-28T02:36:56.531Z,7.93
2022-12-28T02:39:33.544Z,7.74
2022-12-28T02:42:02.483Z,7.75
2022-12-28T02:44:49.482Z,7.81
2022-12-28T02:47:35.778Z,7.84
2022-12-28T02:50:07.994Z,7.80
2022-12-28T02:53:06.899Z,7.81
2022-12-28T02:56:07.326Z,7.85
2022-12-28T02:59:09.411Z,7.89
2022-12-28T03:02:05.965Z,7.88
2022-12-28T03:04:47.701Z,7.95
2022-12-28T03:07:39.705Z,7.78
2022-12-28T03:10:15.622Z,7.84
2022-12-28T03:12:49.795Z,7.81
2022-12-28T03:15:30.021Z,7.84
2022-12-28T03:18:23.907Z,7.87
2022-12-28T03:21:11.654Z,7.82
2022-12-28T03:23:59.400Z,7.76
2022-12-28T03:26:47.815Z,7.71
2022-12-28T03:29:37.640Z,7.76
2022-12-28T03:32:07.218Z,7.71
2022-12-28T03:34:37.562Z,7.64
2022-12-28T03:37:13.134Z,7.76
2022-12-28T03:39:46.559Z,7.75
2022-12-28T03:42:36.174Z,7.66
2022-12-28T03:45:11.625Z,7.56
2022-12-28T03:47:42.167Z,7.57
2022-12-28T03:50:12.976Z,7.34
2022-12-28T03:52:41.120Z,7.55
2022-12-28T03:55:10.331Z,7.58
2022-12-28T03:57:38.509Z,7.59
2022-12-28T04:00:09.412Z,7.54
2022-12-28T04:02:37.683Z,7.37
2022-12-28T04:05:06.667Z,7.38
2022-12-28T04:07:36.519Z,7.29
2022-12-28T04:10:04.998Z,7.19
2022-12-28T04:12:33.121Z,6.98
2022-12-28T04:15:01.139Z,7.05
2022-12-28T04:17:30.689Z,7.03
2022-12-28T04:19:58.947Z,7.10
2022-12-28T04:22:27.089Z,7.00
2022-12-28T04:24:56.429Z,6.58
2022-12-28T04:27:24.772Z,6.73
2022-12-28T04:29:52.865Z,6.73
2022-12-28T04:32:20.813Z,6.85
2022-12-28T04:34:49.210Z,6.97
2022-12-28T04:37:17.465Z,6.83
2022-12-28T04:39:54.782Z,6.84
2022-12-28T04:42:26.816Z,6.83
2022-12-28T04:44:54.816Z,6.94
2022-12-28T04:47:23.129Z,6.83
2022-12-28T04:49:51.161Z,6.89
2022-12-28T04:52:19.145Z,6.81
2022-12-28T04:54:47.191Z,6.80
2022-12-28T04:57:15.501Z,6.75
2022-12-28T04:59:44.896Z,6.64
2022-12-28T05:02:13.040Z,6.67
2022-12-28T05:04:41.235Z,6.73
2022-12-28T05:07:09.329Z,6.84
2022-12-28T05:09:37.503Z,6.56
2022-12-28T05:12:06.396Z,6.34
2022-12-28T05:14:37.211Z,6.22
2022-12-28T05:17:07.096Z,6.47
2022-12-28T05:19:35.255Z,6.76
2022-12-28T05:22:03.422Z,6.81
2022-12-28T05:24:31.532Z,6.84
2022-12-28T05:26:59.684Z,6.64
2022-12-28T05:29:27.633Z,6.75
2022-12-28T05:31:55.715Z,6.71
2022-12-28T05:34:25.183Z,6.80
2022-12-28T05:36:53.201Z,6.89
2022-12-28T05:39:21.194Z,6.87
2022-12-28T05:41:49.253Z,6.80
2022-12-28T05:44:17.272Z,6.81
2022-12-28T05:46:45.310Z,6.75
2022-12-28T05:49:13.505Z,6.63
2022-12-28T05:51:42.939Z,6.64
2022-12-28T05:54:11.028Z,6.66
2022-12-28T05:56:39.022Z,6.50
2022-12-28T05:59:08.861Z,6.53
2022-12-28T06:01:39.092Z,6.48
2022-12-28T06:04:09.203Z,6.49
2022-12-28T06:06:37.516Z,6.48
2022-12-28T06:09:07.159Z,6.50
2022-12-28T06:11:35.616Z,6.40
2022-12-28T06:14:05.840Z,6.47
2022-12-28T06:16:36.279Z,6.44
2022-12-28T06:19:08.392Z,6.00
2022-12-28T06:21:39.088Z,6.22
2022-12-28T06:24:10.225Z,6.27
2022-12-28T06:26:40.121Z,6.15
2022-12-28T06:29:08.713Z,6.04
2022-12-28T06:31:39.599Z,6.02
2022-12-28T06:34:09.839Z,5.98
2022-12-28T06:36:39.825Z,6.19
2022-12-28T06:39:11.279Z,5.80
2022-12-28T06:41:39.884Z,5.40
2022-12-28T06:44:09.254Z,4.86
2022-12-28T06:46:38.336Z,4.86
2022-12-28T06:49:06.739Z,5.06
2022-12-28T06:51:40.774Z,5.34
2022-12-28T06:54:12.075Z,5.63
2022-12-28T06:56:41.368Z,5.70
2022-12-28T06:59:10.162Z,5.74
2022-12-28T07:01:40.892Z,5.67
2022-12-28T07:04:13.270Z,5.49
2022-12-28T07:06:45.165Z,5.56
2022-12-28T07:09:17.647Z,5.66
2022-12-28T07:11:46.735Z,5.37
2022-12-28T07:14:15.671Z,5.64
2022-12-28T07:16:49.609Z,5.14
2022-12-28T07:19:21.823Z,4.99
2022-12-28T07:21:51.173Z,5.29
2022-12-28T07:24:21.290Z,5.37
2022-12-28T07:26:50.012Z,5.72
2022-12-28T07:29:18.560Z,5.59
2022-12-28T07:31:49.791Z,5.18
2022-12-28T07:34:18.520Z,4.67
2022-12-28T07:36:50.820Z,4.69
2022-12-28T07:39:21.063Z,5.09
2022-12-28T07:41:49.537Z,5.44
2022-12-28T07:44:18.851Z,5.82
2022-12-28T07:46:47.892Z,5.64
2022-12-28T07:49:16.382Z,5.88
2022-12-28T07:51:45.145Z,6.10
2022-12-28T07:54:21.576Z,6.05
2022-12-28T07:56:49.510Z,5.65
2022-12-28T07:59:17.575Z,5.83
2022-12-28T08:01:45.883Z,5.98
2022-12-28T08:04:16.002Z,6.08
2022-12-28T08:06:47.338Z,6.13
2022-12-28T08:09:16.975Z,5.93
2022-12-28T08:11:52.410Z,5.66
2022-12-28T08:14:20.823Z,5.98
2022-12-28T08:16:51.129Z,6.32
2022-12-28T08:19:19.167Z,6.54
2022-12-28T08:21:50.546Z,6.32
2022-12-28T08:24:21.853Z,6.21
2022-12-28T08:26:51.928Z,6.41
2022-12-28T08:29:23.857Z,6.62
2022-12-28T08:31:55.320Z,6.67
2022-12-28T08:34:27.047Z,6.85
2022-12-28T08:36:56.029Z,6.98
2022-12-28T08:39:24.600Z,7.18
2022-12-28T08:41:54.248Z,7.12
2022-12-28T08:44:24.566Z,7.04
2022-12-28T08:46:52.559Z,7.10
2022-12-28T08:49:20.725Z,7.28
2022-12-28T08:51:48.789Z,7.32
2022-12-28T08:54:16.887Z,6.76
2022-12-28T08:56:46.473Z,6.33
2022-12-28T08:59:18.200Z,6.63
2022-12-28T09:01:47.483Z,6.91
2022-12-28T09:04:18.152Z,7.18
2022-12-28T09:06:46.513Z,7.46
2022-12-28T09:09:16.209Z,7.47
2022-12-28T09:11:44.853Z,7.67
2022-12-28T09:14:22.227Z,7.87
2022-12-28T09:16:52.956Z,7.99
2022-12-28T09:19:22.009Z,8.03
2022-12-28T09:21:52.566Z,8.31
2022-12-28T09:24:21.174Z,8.58
2022-12-28T09:26:51.049Z,8.82
2022-12-28T09:29:19.052Z,8.90
2022-12-28T09:31:47.085Z,8.97
2022-12-28T09:34:35.689Z,9.06
2022-12-28T09:37:04.645Z,9.14
2022-12-28T09:39:32.815Z,9.19
2022-12-28T09:42:04.425Z,9.19
2022-12-28T09:44:41.625Z,9.28
2022-12-28T09:47:20.824Z,9.21
2022-12-28T09:49:59.236Z,9.25
2022-12-28T09:52:31.461Z,9.41
2022-12-28T09:55:06.906Z,9.47
2022-12-28T09:57:39.251Z,9.73
2022-12-28T10:00:16.041Z,9.64
2022-12-28T10:02:49.410Z,9.82
2022-12-28T10:05:21.334Z,10.15
2022-12-28T10:07:49.664Z,10.37
2022-12-28T10:10:20.140Z,10.49
2022-12-28T10:12:49.162Z,10.44
2022-12-28T10:15:18.153Z,10.65
2022-12-28T10:17:46.894Z,10.81
2022-12-28T10:20:18.779Z,10.86
2022-12-28T10:22:50.638Z,10.89
2022-12-28T10:25:22.031Z,11.18
2022-12-28T10:27:50.732Z,11.37
2022-12-28T10:30:21.476Z,11.48
2022-12-28T10:32:55.489Z,11.59
2022-12-28T10:35:31.314Z,11.70
2022-12-28T10:38:04.755Z,11.65
2022-12-28T10:40:36.888Z,11.91
2022-12-28T10:43:10.861Z,12.06
2022-12-28T10:45:43.165Z,12.15
2022-12-28T10:48:19.480Z,12.20
2022-12-28T10:50:53.215Z,12.35
2022-12-28T10:53:28.485Z,12.35
2022-12-28T10:56:06.270Z,12.21
2022-12-28T10:58:35.324Z,12.31
2022-12-28T11:01:07.685Z,12.62
2022-12-28T11:03:39.067Z,12.45
2022-12-28T11:06:26.822Z,12.61
2022-12-28T11:09:17.558Z,12.89
2022-12-28T11:11:47.849Z,13.06
2022-12-28T11:14:25.206Z,13.27
2022-12-28T11:16:53.965Z,13.45
2022-12-28T11:19:24.862Z,13.55
2022-12-28T11:21:54.778Z,13.56
2022-12-28T11:24:28.039Z,13.65
2022-12-28T11:26:56.092Z,13.65
2022-12-28T11:29:24.329Z,13.68
2022-12-28T11:32:01.081Z,13.73
2022-12-28T11:34:30.728Z,13.96
2022-12-28T11:37:00.205Z,14.08
2022-12-28T11:39:34.294Z,14.22
2022-12-28T11:44:54.196Z,14.41
2022-12-28T11:47:36.728Z,14.51
2022-12-28T11:50:43.535Z,14.68
2022-12-28T11:53:24.700Z,14.74
2022-12-28T11:56:07.801Z,14.83
2022-12-28T11:59:07.062Z,14.88
2022-12-28T12:01:46.196Z,14.85
2022-12-28T12:04:32.604Z,14.92
2022-12-28T12:07:31.122Z,15.06
2022-12-28T12:10:41.852Z,15.14
2022-12-28T12:13:45.960Z,15.21
2022-12-28T12:16:22.809Z,15.15
2022-12-28T12:18:54.114Z,15.22
2022-12-28T12:21:30.393Z,15.37
2022-12-28T12:24:04.847Z,15.27
2022-12-28T12:26:39.175Z,15.36
2022-12-28T12:29:16.940Z,15.46
2022-12-28T12:31:48.617Z,15.49
2022-12-28T12:34:24.637Z,15.50
2022-12-28T12:37:15.394Z,15.45
2022-12-28T12:40:04.732Z,15.47
2022-12-28T12:42:43.126Z,15.59
2022-12-28T12:45:22.743Z,15.71
2022-12-28T12:48:16.608Z,15.75
2022-12-28T12:51:00.490Z,15.82
2022-12-28T12:53:48.481Z,15.98
2022-12-28T12:56:34.723Z,15.91
2022-12-28T12:59:23.336Z,15.82
2022-12-28T13:01:59.412Z,15.87
2022-12-28T13:04:30.850Z,16.05
2022-12-28T13:07:01.748Z,16.13
2022-12-28T13:09:31.733Z,16.14
2022-12-28T13:12:01.609Z,16.17
2022-12-28T13:14:30.645Z,16.28
2022-12-28T13:17:01.947Z,16.30
2022-12-28T13:19:30.911Z,16.27
2022-12-28T13:21:59.657Z,16.30
2022-12-28T13:24:29.934Z,16.43
2022-12-28T13:27:00.325Z,16.47
2022-12-28T13:29:39.711Z,16.49
2022-12-28T13:32:25.473Z,16.27
2022-12-28T13:34:53.604Z,16.39
2022-12-28T13:37:23.006Z,16.42
2022-12-28T13:39:51.561Z,16.48
2022-12-28T13:42:24.053Z,16.56
2022-12-28T13:44:55.644Z,16.58
2022-12-28T13:47:29.910Z,16.65
2022-12-28T13:50:03.871Z,16.57
2022-12-28T13:52:37.144Z,16.73
2022-12-28T13:55:11.568Z,16.93
2022-12-28T13:57:50.100Z,17.06
2022-12-28T14:00:20.959Z,17.05
2022-12-28T14:02:53.581Z,17.01
2022-12-28T14:05:24.084Z,17.07
2022-12-28T14:07:53.841Z,17.11
2022-12-28T14:10:23.189Z,17.02
2022-12-28T14:12:52.787Z,17.02
2022-12-28T14:15:21.507Z,17.09
2022-12-28T14:17:54.907Z,17.12
2022-12-28T14:20:23.731Z,17.08
2022-12-28T14:22:52.463Z,16.86
2022-12-28T14:25:23.636Z,16.91
2022-12-28T14:27:58.329Z,16.89
2022-12-28T14:30:29.624Z,16.92
2022-12-28T14:33:13.153Z,16.97
2022-12-28T14:35:49.074Z,17.05
2022-12-28T14:38:21.544Z,17.05
2022-12-28T14:40:54.843Z,17.03
2022-12-28T14:43:27.093Z,16.95
2022-12-28T14:48:45.646Z,16.90
2022-12-28T14:51:29.196Z,16.95
2022-12-28T14:54:18.276Z,16.89
2022-12-28T14:56:50.269Z,16.87
2022-12-28T14:59:23.432Z,16.84
2022-12-28T15:00:16.103Z,16.99
2022-12-28T15:01:52.763Z,16.89
2022-12-28T15:04:37.898Z,16.86
2022-12-28T15:07:07.238Z,16.58
2022-12-28T15:09:36.244Z,16.75
2022-12-28T15:12:15.443Z,16.86
2022-12-28T15:14:44.026Z,16.79
2022-12-28T15:17:12.075Z,16.89
2022-12-28T15:19:43.124Z,16.96
2022-12-28T15:22:11.138Z,16.78
2022-12-28T15:24:41.426Z,16.73
2022-12-28T15:27:09.505Z,16.80
2022-12-28T15:30:04.209Z,16.59
2022-12-28T15:32:25.632Z,16.63
2022-12-28T15:34:55.444Z,16.45
2022-12-28T15:37:23.479Z,16.40
2022-12-28T15:39:51.430Z,16.16
2022-12-28T15:42:19.534Z,16.23
2022-12-28T15:44:48.773Z,16.13
2022-12-28T15:47:16.969Z,16.18
2022-12-28T15:49:44.967Z,16.20
2022-12-28T15:52:14.634Z,16.01
2022-12-28T15:54:46.910Z,15.96
2022-12-28T15:57:16.037Z,15.89
2022-12-28T15:59:45.005Z,15.91
2022-12-28T16:02:13.372Z,15.93
2022-12-28T16:04:42.072Z,15.94
2022-12-28T16:07:10.087Z,15.84
2022-12-28T16:09:39.704Z,15.78
2022-12-28T16:12:08.068Z,15.67
2022-12-28T16:14:36.327Z,15.58
2022-12-28T16:17:04.535Z,15.62
2022-12-28T16:19:35.517Z,15.57
2022-12-28T16:22:03.701Z,15.40
2022-12-28T16:24:32.129Z,15.30
2022-12-28T16:27:01.586Z,15.43
2022-12-28T16:29:29.806Z,15.33
2022-12-28T16:32:00.400Z,15.18
2022-12-28T16:34:29.236Z,15.07
2022-12-28T16:36:59.620Z,14.84
2022-12-28T16:39:29.833Z,14.79
2022-12-28T16:41:58.448Z,14.79
2022-12-28T16:44:29.597Z,14.78
2022-12-28T16:46:59.656Z,14.53
2022-12-28T16:49:29.787Z,14.36
2022-12-28T16:51:58.450Z,14.49
2022-12-28T16:54:28.328Z,14.30
2022-12-28T16:56:56.434Z,14.40
2022-12-28T16:59:26.337Z,14.40
2022-12-28T17:01:57.774Z,14.34
2022-12-28T17:04:26.423Z,14.26
2022-12-28T17:06:54.840Z,14.11
2022-12-28T17:09:23.257Z,13.95
2022-12-28T17:11:51.968Z,13.81
2022-12-28T17:14:36.468Z,13.67
2022-12-28T17:17:07.089Z,13.48
2022-12-28T17:19:35.615Z,13.34
2022-12-28T17:22:04.082Z,13.25
2022-12-28T17:24:32.589Z,13.11
2022-12-28T17:27:07.246Z,12.96
2022-12-28T17:29:37.311Z,12.77
2022-12-28T17:32:07.055Z,12.66
2022-12-28T17:34:35.293Z,12.64
2022-12-28T17:37:03.385Z,12.61
2022-12-28T17:39:36.118Z,12.52
2022-12-28T17:42:07.807Z,12.51
2022-12-28T17:44:36.053Z,12.51
2022-12-28T17:47:04.200Z,12.43
2022-12-28T17:49:33.896Z,12.56
2022-12-28T17:52:01.886Z,12.71
2022-12-28T17:54:30.189Z,12.75
2022-12-28T17:56:58.496Z,12.53
2022-12-28T17:59:26.922Z,12.64
2022-12-28T18:01:55.285Z,12.87
2022-12-28T18:04:23.728Z,12.88
2022-12-28T18:06:53.258Z,12.92
2022-12-28T18:09:27.461Z,13.03
2022-12-28T18:11:56.497Z,13.16
2022-12-28T18:14:25.288Z,13.18
2022-12-28T18:16:53.805Z,13.09
2022-12-28T18:19:21.991Z,13.30
2022-12-28T18:21:50.485Z,13.34
2022-12-28T18:24:21.128Z,13.40
2022-12-28T18:26:52.301Z,13.37
2022-12-28T18:29:20.400Z,13.24
2022-12-28T18:31:48.742Z,13.26
2022-12-28T18:34:16.907Z,13.31
2022-12-28T18:36:47.884Z,13.23
2022-12-28T18:39:16.014Z,13.30
2022-12-28T18:41:45.744Z,13.30
2022-12-28T18:44:14.267Z,13.30
2022-12-28T18:46:42.423Z,13.03
2022-12-28T18:49:10.627Z,12.88
2022-12-28T18:51:38.912Z,13.01
2022-12-28T18:54:07.244Z,12.95
2022-12-28T18:56:35.659Z,12.84
2022-12-28T18:59:05.352Z,12.89
2022-12-28T19:02:05.104Z,12.87
2022-12-28T19:04:22.417Z,12.79
2022-12-28T19:06:50.514Z,12.73
2022-12-28T19:09:19.418Z,12.85
2022-12-28T19:11:50.424Z,12.92
2022-12-28T19:14:20.181Z,12.79
2022-12-28T19:16:48.320Z,12.67
2022-12-28T19:19:17.614Z,12.70
2022-12-28T19:21:46.140Z,12.73
2022-12-28T19:24:16.263Z,12.74
2022-12-28T19:26:45.232Z,12.70
2022-12-28T19:29:16.417Z,12.78
2022-12-28T19:31:46.164Z,12.69
2022-12-28T19:34:14.356Z,12.54
2022-12-28T19:36:42.366Z,12.41
2022-12-28T19:39:10.484Z,12.36
2022-12-28T19:41:38.564Z,12.37
2022-12-28T19:44:07.426Z,12.33
2022-12-28T19:46:35.813Z,12.25
2022-12-28T19:49:08.416Z,12.26
2022-12-28T19:51:36.513Z,12.13
2022-12-28T19:54:04.864Z,11.87
2022-12-28T19:56:36.123Z,11.97
2022-12-28T19:59:07.034Z,12.14
2022-12-28T20:01:37.184Z,12.32
2022-12-28T20:04:12.818Z,12.49
2022-12-28T20:06:43.870Z,12.28
2022-12-28T20:09:12.828Z,12.23
2022-12-28T20:11:41.936Z,12.34
2022-12-28T20:14:12.956Z,12.41
2022-12-28T20:16:42.356Z,12.42
2022-12-28T20:19:13.327Z,12.32
2022-12-28T20:21:42.799Z,12.32
2022-12-28T20:24:13.688Z,11.92
2022-12-28T20:26:41.754Z,12.03
2022-12-28T20:29:09.765Z,12.25
2022-12-28T20:31:37.878Z,12.40
2022-12-28T20:34:05.907Z,12.46
2022-12-28T20:36:35.405Z,12.35
2022-12-28T20:39:05.645Z,12.08
2022-12-28T20:41:52.551Z,11.90
2022-12-28T20:44:28.710Z,11.75
2022-12-28T20:46:58.196Z,11.89
2022-12-28T20:49:28.122Z,11.90
2022-12-28T20:51:57.834Z,11.35
2022-12-28T20:54:26.241Z,11.45
2022-12-28T20:56:56.092Z,11.55
2022-12-28T20:59:26.301Z,11.74
2022-12-28T21:01:54.919Z,11.83
2022-12-28T21:04:24.625Z,11.92
2022-12-28T21:06:53.247Z,11.88
2022-12-28T21:09:22.851Z,11.86
2022-12-28T21:11:50.973Z,11.83
2022-12-28T21:14:19.554Z,11.81
2022-12-28T21:16:50.777Z,11.86
2022-12-28T21:19:21.713Z,12.07
2022-12-28T21:21:49.836Z,12.22
2022-12-28T21:24:17.943Z,12.18
2022-12-28T21:26:48.123Z,12.33
2022-12-28T21:29:20.584Z,12.42
2022-12-28T21:31:54.140Z,12.23
2022-12-28T21:34:22.254Z,12.17
2022-12-28T21:36:50.435Z,12.24
2022-12-28T21:39:21.796Z,12.39
2022-12-28T21:41:51.313Z,12.39
2022-12-28T21:44:21.535Z,12.57
2022-12-28T21:46:51.978Z,12.51
2022-12-28T21:49:20.592Z,12.37
2022-12-28T21:51:48.721Z,12.27
2022-12-28T21:54:19.501Z,12.21
2022-12-28T21:56:53.251Z,12.34
2022-12-28T21:59:22.620Z,12.18
2022-12-28T22:02:08.722Z,12.13
2022-12-28T22:05:00.418Z,12.18
2022-12-28T22:07:33.787Z,12.09
2022-12-28T22:10:19.631Z,12.26
2022-12-28T22:12:49.140Z,12.39
2022-12-28T22:15:36.982Z,12.45
2022-12-28T22:18:15.796Z,12.44
2022-12-28T22:20:58.376Z,12.33
2022-12-28T22:23:31.104Z,12.15
2022-12-28T22:26:02.559Z,12.09
2022-12-28T22:28:32.765Z,12.12
2022-12-28T22:31:05.125Z,12.34
2022-12-28T22:33:33.354Z,12.39
2022-12-28T22:36:11.805Z,12.32
2022-12-28T22:38:40.107Z,12.18
2022-12-28T22:41:08.499Z,11.97
2022-12-28T22:43:38.936Z,11.87
2022-12-28T22:46:09.880Z,11.80
2022-12-28T22:48:38.315Z,11.50
2022-12-28T22:51:07.885Z,11.31
2022-12-28T22:53:36.552Z,11.44
2022-12-28T22:56:06.928Z,11.49
2022-12-28T22:58:35.669Z,11.52
2022-12-28T23:01:07.186Z,11.53
2022-12-28T23:03:35.835Z,11.56
2022-12-28T23:06:04.115Z,11.50
2022-12-28T23:08:32.101Z,11.20
2022-12-28T23:11:01.711Z,11.13
2022-12-28T23:13:30.589Z,11.05
2022-12-28T23:15:59.606Z,11.07
2022-12-28T23:18:47.696Z,11.13
2022-12-28T23:21:39.496Z,11.18
2022-12-28T23:24:28.784Z,11.28
2022-12-28T23:27:14.497Z,11.26
2022-12-28T23:29:42.576Z,11.32
2022-12-28T23:32:10.790Z,11.35
2022-12-28T23:34:42.917Z,11.38
2022-12-28T23:37:10.944Z,11.25
2022-12-28T23:39:38.961Z,11.26
2022-12-28T23:42:07.211Z,11.35
2022-12-28T23:44:35.282Z,11.36
2022-12-28T23:47:03.581Z,11.36
2022-12-28T23:49:31.616Z,11.37
2022-12-28T23:52:00.974Z,11.22
2022-12-28T23:54:29.173Z,11.27
2022-12-28T23:56:57.131Z,11.29
2022-12-28T23:59:25.394Z,11.31
